Time;durP1;ratioP1;P1;durP2;ratioP2;P2;SDS_P1;SDS_P2;PMS_P1;PMS_P2;Temp;Humidity;BMP_temperature;BMP_pressure;BME280_temperature;BME280_humidity;BME280_pressure;Samples;Min_cycle;Max_cycle;Signal;HPM_P1;HPM_P2
2022/12/31 00:01:03;;;;;;;17.95;12.27;;;12.50;99.90;;;;;;5084994;28;20801;-75
2022/12/31 00:03:32;;;;;;;17.17;11.23;;;12.40;99.90;;;;;;5098655;28;20375;-75
2022/12/31 00:06:00;;;;;;;19.42;11.40;;;12.40;99.90;;;;;;5097802;28;20044;-75
2022/12/31 00:08:28;;;;;;;20.52;12.55;;;12.40;99.90;;;;;;5092173;28;20052;-74
2022/12/31 00:10:56;;;;;;;18.90;12.13;;;12.40;99.90;;;;;;5096811;28;20501;-75
2022/12/31 00:13:23;;;;;;;16.13;11.63;;;12.50;99.90;;;;;;5104988;28;20082;-75
2022/12/31 00:15:51;;;;;;;25.30;12.52;;;12.50;99.90;;;;;;5097081;28;20093;-74
2022/12/31 00:18:19;;;;;;;21.88;13.07;;;12.40;99.90;;;;;;5095276;28;20154;-76
2022/12/31 00:20:46;;;;;;;18.40;12.30;;;12.50;99.90;;;;;;5099903;28;20520;-75
2022/12/31 00:23:13;;;;;;;15.95;12.02;;;12.50;99.90;;;;;;5101546;28;20048;-76
2022/12/31 00:25:41;;;;;;;14.60;10.93;;;12.50;99.90;;;;;;5087948;28;20071;-75
2022/12/31 00:28:08;;;;;;;17.73;12.27;;;12.50;99.90;;;;;;5083997;28;20053;-75
2022/12/31 00:30:36;;;;;;;23.67;13.77;;;12.60;99.90;;;;;;5100372;28;20683;-75
2022/12/31 00:33:03;;;;;;;17.45;11.93;;;12.50;99.90;;;;;;5089765;28;20036;-76
2022/12/31 00:35:33;;;;;;;16.30;12.55;;;12.50;99.90;;;;;;5098104;28;20037;-76
2022/12/31 00:38:01;;;;;;;18.58;12.95;;;12.50;99.90;;;;;;5089426;28;20067;-76
2022/12/31 00:40:29;;;;;;;18.17;12.52;;;12.50;99.90;;;;;;5096842;28;20060;-75
2022/12/31 00:42:56;;;;;;;15.57;11.77;;;12.50;99.90;;;;;;5094375;28;20067;-75
2022/12/31 00:45:24;;;;;;;14.05;11.73;;;12.50;99.90;;;;;;5098748;28;20041;-75
2022/12/31 00:47:51;;;;;;;13.52;10.13;;;12.40;99.90;;;;;;5089281;28;20056;-75
2022/12/31 00:50:19;;;;;;;15.00;10.70;;;12.40;99.90;;;;;;5072352;28;20044;-75
2022/12/31 00:52:46;;;;;;;20.17;10.98;;;12.40;99.90;;;;;;5094177;28;20158;-74
2022/12/31 00:55:14;;;;;;;15.63;10.63;;;12.40;99.90;;;;;;5076853;28;20043;-75
2022/12/31 00:57:41;;;;;;;13.18;10.63;;;12.50;99.90;;;;;;5095991;28;20482;-75
2022/12/31 01:00:09;;;;;;;12.90;9.32;;;12.50;99.90;;;;;;5092638;28;20557;-74
2022/12/31 01:02:37;;;;;;;11.85;9.35;;;12.40;99.90;;;;;;5075234;28;20056;-76
2022/12/31 01:05:07;;;;;;;14.68;9.23;;;12.40;99.90;;;;;;5088990;28;20070;-76
2022/12/31 01:07:36;;;;;;;11.90;9.55;;;12.50;99.90;;;;;;5085100;28;20488;-75
2022/12/31 01:10:04;;;;;;;14.40;8.68;;;12.40;99.90;;;;;;5075223;28;20075;-75
2022/12/31 01:12:32;;;;;;;12.65;9.20;;;12.40;99.90;;;;;;5085029;28;20100;-75
2022/12/31 01:14:59;;;;;;;11.48;8.18;;;12.40;99.90;;;;;;5086415;28;20041;-75
2022/12/31 01:17:27;;;;;;;11.45;8.57;;;12.40;99.90;;;;;;5090542;28;20048;-75
2022/12/31 01:19:54;;;;;;;12.25;10.02;;;12.30;99.90;;;;;;5083425;28;20052;-75
2022/12/31 01:22:22;;;;;;;14.02;9.60;;;12.20;99.90;;;;;;5074130;28;20157;-75
2022/12/31 01:24:49;;;;;;;14.70;9.50;;;12.20;99.90;;;;;;5087332;28;20035;-75
2022/12/31 01:27:17;;;;;;;14.27;9.85;;;12.10;99.90;;;;;;5074105;28;20826;-75
2022/12/31 01:29:45;;;;;;;13.98;9.95;;;12.20;99.90;;;;;;5085800;28;20047;-75
2022/12/31 01:32:13;;;;;;;16.05;9.50;;;12.20;99.90;;;;;;5077088;28;20434;-76
2022/12/31 01:34:40;;;;;;;12.40;10.38;;;12.30;99.90;;;;;;5078974;28;20090;-75
2022/12/31 01:37:07;;;;;;;14.85;9.75;;;12.30;99.90;;;;;;5083202;28;20055;-75
2022/12/31 01:39:35;;;;;;;14.00;9.00;;;12.40;99.90;;;;;;5087942;28;20077;-76
2022/12/31 01:42:02;;;;;;;12.73;9.65;;;12.40;99.90;;;;;;5081981;28;20064;-75
2022/12/31 01:44:30;;;;;;;13.95;9.95;;;12.40;99.90;;;;;;5066906;28;20049;-76
2022/12/31 01:47:01;;;;;;;16.23;9.30;;;12.40;99.90;;;;;;5087614;28;20048;-75
2022/12/31 01:49:48;;;;;;;13.63;9.50;;;12.50;99.90;;;;;;5081254;28;20044;-76
2022/12/31 01:52:29;;;;;;;10.85;8.57;;;12.40;99.90;;;;;;5088242;28;20123;-75
2022/12/31 01:55:04;;;;;;;14.90;9.02;;;12.40;99.90;;;;;;5076798;28;20062;-75
2022/12/31 01:57:32;;;;;;;12.82;9.55;;;12.40;99.90;;;;;;5078636;28;20044;-75
2022/12/31 02:00:00;;;;;;;16.13;9.00;;;12.40;99.90;;;;;;5078312;28;20075;-76
2022/12/31 02:02:31;;;;;;;13.38;8.50;;;12.40;99.90;;;;;;5061807;28;20513;-75
2022/12/31 02:05:02;;;;;;;15.85;9.73;;;12.30;99.90;;;;;;5074896;28;20040;-74
2022/12/31 02:07:29;;;;;;;11.45;7.45;;;12.30;99.90;;;;;;5065605;28;20076;-74
2022/12/31 02:09:58;;;;;;;12.80;8.43;;;12.40;99.90;;;;;;5071796;28;20495;-75
2022/12/31 02:12:26;;;;;;;10.52;8.40;;;12.40;99.90;;;;;;5068269;28;20056;-75
2022/12/31 02:14:54;;;;;;;14.48;9.00;;;12.40;99.90;;;;;;5084543;28;20052;-75
2022/12/31 02:17:31;;;;;;;11.73;8.15;;;12.30;99.90;;;;;;5088826;28;20070;-75
2022/12/31 02:20:47;;;;;;;11.65;7.53;;;12.30;99.90;;;;;;5087912;28;20044;-75
2022/12/31 02:23:59;;;;;;;12.38;8.25;;;12.40;99.90;;;;;;5077062;28;20049;-75
2022/12/31 02:26:41;;;;;;;10.18;6.75;;;12.30;99.90;;;;;;4997040;28;20146;-75
2022/12/31 02:29:46;;;;;;;14.18;8.65;;;12.30;99.90;;;;;;5076447;28;20056;-75
2022/12/31 02:32:22;;;;;;;11.52;7.53;;;12.30;99.90;;;;;;5085080;28;20036;-75
2022/12/31 02:34:51;;;;;;;;;;;12.30;99.90;;;;;;5067410;28;20067;-75
2022/12/31 02:37:21;;;;;;;13.45;8.30;;;12.30;99.90;;;;;;5085327;28;19923;-75
2022/12/31 02:39:50;;;;;;;17.38;8.88;;;12.30;99.90;;;;;;5085242;28;20084;-75
2022/12/31 02:42:17;;;;;;;13.70;8.90;;;12.30;99.90;;;;;;5084210;28;20048;-75
2022/12/31 02:44:45;;;;;;;11.90;8.30;;;12.20;99.90;;;;;;5079981;28;20169;-75
2022/12/31 02:47:21;;;;;;;13.82;9.75;;;12.20;99.90;;;;;;5089470;28;20051;-75
2022/12/31 02:49:51;;;;;;;;;;;12.20;99.90;;;;;;5090997;28;20052;-75
2022/12/31 02:52:34;;;;;;;10.65;7.78;;;12.20;99.90;;;;;;5077076;28;19985;-75
2022/12/31 02:55:17;;;;;;;11.30;8.30;;;12.20;99.90;;;;;;5090021;28;20512;-75
2022/12/31 03:02:12;;;;;;;13.80;9.43;;;12.20;99.90;;;;;;5090289;28;20712;-75
2022/12/31 03:07:09;;;;;;;15.30;7.85;;;12.10;99.90;;;;;;5088301;28;20043;-76
2022/12/31 03:09:37;;;;;;;12.38;7.38;;;12.10;99.90;;;;;;5082856;28;20101;-75
2022/12/31 03:14:53;;;;;;;10.63;8.00;;;12.00;99.90;;;;;;5089116;28;20097;-75
2022/12/31 03:17:21;;;;;;;14.40;9.02;;;12.00;99.90;;;;;;5084709;28;20525;-75
2022/12/31 03:22:38;;;;;;;11.30;7.65;;;12.00;99.90;;;;;;5068861;28;20160;-75
2022/12/31 03:28:00;;;;;;;11.32;8.25;;;11.90;99.90;;;;;;5074435;28;20055;-75
2022/12/31 03:30:29;;;;;;;12.90;8.98;;;11.90;99.90;;;;;;5076962;28;20418;-75
2022/12/31 03:32:57;;;;;;;12.52;8.63;;;11.90;99.90;;;;;;5080114;28;20071;-74
2022/12/31 03:35:27;;;;;;;14.80;8.10;;;11.90;99.90;;;;;;5089683;28;20044;-75
2022/12/31 03:37:56;;;;;;;12.20;6.45;;;11.90;99.90;;;;;;5088341;28;20040;-75
2022/12/31 03:40:26;;;;;;;10.55;6.88;;;11.80;99.90;;;;;;5088787;28;20044;-75
2022/12/31 03:42:54;;;;;;;11.10;6.95;;;11.90;99.90;;;;;;5089194;28;20395;-74
2022/12/31 03:45:23;;;;;;;12.80;7.15;;;11.80;99.90;;;;;;5082168;28;20040;-74
2022/12/31 03:47:50;;;;;;;11.40;8.00;;;11.90;99.90;;;;;;5084359;28;20051;-76
2022/12/31 03:50:18;;;;;;;11.80;7.72;;;11.90;99.90;;;;;;5089908;28;20040;-75
2022/12/31 03:52:46;;;;;;;15.65;7.35;;;11.90;99.90;;;;;;5090370;28;20040;-75
2022/12/31 03:55:14;;;;;;;17.42;7.80;;;11.80;99.90;;;;;;5089758;28;20044;-74
2022/12/31 03:57:42;;;;;;;15.15;7.43;;;11.80;99.90;;;;;;5089353;28;20048;-75
2022/12/31 04:00:12;;;;;;;19.80;7.35;;;11.80;99.90;;;;;;5080202;28;20044;-74
2022/12/31 04:02:40;;;;;;;17.45;7.82;;;11.70;99.90;;;;;;5068281;28;20410;-75
2022/12/31 04:05:09;;;;;;;12.30;5.95;;;11.50;99.90;;;;;;5067911;28;20540;-75
2022/12/31 04:07:37;;;;;;;8.20;5.00;;;11.40;99.90;;;;;;5077250;28;20041;-75
2022/12/31 04:10:06;;;;;;;11.90;6.07;;;11.40;99.90;;;;;;5079650;28;20688;-75
2022/12/31 04:12:34;;;;;;;13.95;7.32;;;11.40;99.90;;;;;;5070391;28;20037;-75
2022/12/31 04:15:02;;;;;;;17.10;8.20;;;11.30;99.90;;;;;;5089412;28;20473;-75
2022/12/31 04:17:30;;;;;;;14.98;8.18;;;11.20;99.90;;;;;;5087978;28;20040;-75
2022/12/31 04:19:57;;;;;;;18.80;7.88;;;11.20;99.90;;;;;;5087957;28;20561;-75
2022/12/31 04:22:25;;;;;;;20.00;8.25;;;11.10;99.90;;;;;;5088501;28;20054;-75
2022/12/31 04:24:52;;;;;;;30.50;8.35;;;11.10;99.90;;;;;;5078841;28;20398;-75
2022/12/31 04:27:20;;;;;;;25.67;9.60;;;11.00;99.90;;;;;;5058572;28;20063;-75
2022/12/31 04:29:47;;;;;;;26.45;10.05;;;11.00;99.90;;;;;;5070203;28;20044;-75
2022/12/31 04:32:15;;;;;;;26.45;10.98;;;11.00;99.90;;;;;;5066657;28;20716;-75
2022/12/31 04:34:42;;;;;;;39.75;12.15;;;11.10;99.90;;;;;;5067112;28;20395;-75
2022/12/31 04:37:09;;;;;;;35.42;11.60;;;11.10;99.90;;;;;;5072316;28;20525;-75
2022/12/31 04:39:37;;;;;;;32.53;11.73;;;11.10;99.90;;;;;;5070023;28;20496;-75
2022/12/31 04:42:05;;;;;;;46.08;13.35;;;11.10;99.90;;;;;;5066179;28;20066;-75
2022/12/31 04:44:33;;;;;;;30.20;12.27;;;11.20;99.90;;;;;;5081431;28;20052;-75
2022/12/31 04:47:01;;;;;;;37.08;14.30;;;11.20;99.90;;;;;;5043179;28;20036;-75
2022/12/31 04:49:28;;;;;;;51.33;15.20;;;11.20;99.90;;;;;;5093133;28;20367;-75
2022/12/31 04:51:56;;;;;;;44.60;15.10;;;11.20;99.90;;;;;;5064203;28;20060;-75
2022/12/31 04:54:23;;;;;;;32.63;14.07;;;11.30;99.90;;;;;;5071431;28;20775;-75
2022/12/31 04:56:51;;;;;;;24.35;10.20;;;11.30;99.90;;;;;;5076021;28;20055;-75
2022/12/31 04:59:18;;;;;;;41.80;25.67;;;11.30;99.90;;;;;;5081868;28;20063;-75
2022/12/31 05:01:46;;;;;;;42.08;19.58;;;11.40;99.90;;;;;;5092691;28;20047;-75
2022/12/31 05:04:14;;;;;;;25.88;14.88;;;11.40;99.90;;;;;;5067140;28;20048;-75
2022/12/31 05:06:41;;;;;;;27.38;14.02;;;11.40;99.90;;;;;;5055795;28;20075;-75
2022/12/31 05:09:09;;;;;;;22.95;14.05;;;11.40;99.90;;;;;;5092759;28;20054;-75
2022/12/31 05:11:37;;;;;;;33.35;23.70;;;11.50;99.90;;;;;;5061093;28;20472;-75
2022/12/31 05:14:04;;;;;;;27.25;18.90;;;11.50;99.90;;;;;;5071768;28;20044;-75
2022/12/31 05:16:31;;;;;;;57.25;33.38;;;11.50;99.90;;;;;;5079574;28;20825;-75
2022/12/31 05:18:59;;;;;;;76.30;39.35;;;11.50;99.90;;;;;;5083009;28;20040;-75
2022/12/31 05:21:26;;;;;;;53.38;39.13;;;11.60;99.90;;;;;;5086740;28;20355;-75
2022/12/31 05:23:54;;;;;;;130.75;52.20;;;11.60;99.90;;;;;;5091247;28;20047;-75
2022/12/31 05:26:21;;;;;;;108.00;69.57;;;11.60;99.90;;;;;;5074027;28;20059;-75
2022/12/31 05:28:49;;;;;;;130.65;71.25;;;11.60;99.90;;;;;;5090898;28;20138;-75
2022/12/31 05:31:16;;;;;;;77.13;39.40;;;11.70;99.90;;;;;;5085146;28;20442;-75
2022/12/31 05:33:44;;;;;;;94.50;33.38;;;11.70;99.90;;;;;;5069193;28;20109;-75
2022/12/31 05:36:11;;;;;;;90.80;25.48;;;11.80;99.90;;;;;;5090468;28;20051;-75
2022/12/31 05:38:39;;;;;;;65.80;25.45;;;11.80;99.90;;;;;;5090360;28;20155;-75
2022/12/31 05:41:08;;;;;;;84.65;30.90;;;11.80;99.90;;;;;;5073925;28;20557;-75
2022/12/31 05:43:35;;;;;;;110.47;43.53;;;11.90;99.90;;;;;;5091728;28;20044;-75
2022/12/31 05:46:03;;;;;;;91.97;25.00;;;11.80;99.90;;;;;;5085930;28;20058;-75
2022/12/31 05:48:31;;;;;;;105.68;27.13;;;11.80;99.90;;;;;;5085058;28;20044;-75
2022/12/31 05:50:59;;;;;;;188.50;29.58;;;11.80;99.90;;;;;;5090600;28;20097;-75
2022/12/31 05:53:26;;;;;;;114.90;26.33;;;11.80;99.90;;;;;;5090356;28;20130;-75
2022/12/31 05:55:54;;;;;;;107.53;21.27;;;11.80;99.90;;;;;;5087135;28;20040;-75
2022/12/31 05:58:22;;;;;;;77.57;18.63;;;11.90;99.90;;;;;;5101616;28;20584;-76
2022/12/31 06:00:51;;;;;;;70.93;16.52;;;11.90;99.90;;;;;;5086579;28;20051;-75
2022/12/31 06:03:18;;;;;;;57.50;13.25;;;11.90;99.90;;;;;;5085612;28;20054;-76
2022/12/31 06:05:46;;;;;;;52.92;12.70;;;11.90;99.90;;;;;;5092271;28;20059;-76
2022/12/31 06:08:14;;;;;;;37.08;10.05;;;11.90;99.90;;;;;;5081885;28;20036;-76
2022/12/31 06:10:41;;;;;;;41.47;8.50;;;11.90;99.90;;;;;;5090888;28;20052;-76
2022/12/31 06:13:09;;;;;;;19.27;6.88;;;11.90;99.90;;;;;;5091573;28;20071;-76
2022/12/31 06:15:38;;;;;;;35.15;8.10;;;11.90;99.90;;;;;;5088693;28;20524;-76
2022/12/31 06:18:06;;;;;;;55.90;9.52;;;11.90;99.90;;;;;;5089497;28;20140;-76
2022/12/31 06:20:36;;;;;;;30.05;9.52;;;11.90;99.90;;;;;;5090259;28;20391;-76
2022/12/31 06:23:04;;;;;;;28.75;9.70;;;11.80;99.90;;;;;;5072645;28;20604;-76
2022/12/31 06:25:33;;;;;;;26.05;9.05;;;11.80;99.90;;;;;;5087571;28;20571;-76
2022/12/31 06:28:02;;;;;;;38.55;9.43;;;11.70;99.90;;;;;;5087487;28;20389;-76
2022/12/31 06:30:30;;;;;;;33.75;9.40;;;11.80;99.90;;;;;;5088377;28;20124;-76
2022/12/31 06:32:57;;;;;;;26.98;8.40;;;11.80;99.90;;;;;;5089081;28;20608;-75
2022/12/31 06:35:25;;;;;;;43.70;10.27;;;11.70;99.90;;;;;;5088440;28;20055;-75
2022/12/31 06:37:52;;;;;;;45.00;9.77;;;11.80;99.90;;;;;;5088302;28;20052;-76
2022/12/31 06:40:20;;;;;;;35.55;9.80;;;11.80;99.90;;;;;;5089708;28;20508;-76
2022/12/31 06:42:49;;;;;;;39.00;8.77;;;11.90;99.90;;;;;;5091399;28;20125;-76
2022/12/31 06:45:18;;;;;;;38.35;8.68;;;11.90;99.90;;;;;;5090527;28;20064;-76
2022/12/31 06:47:46;;;;;;;29.42;7.22;;;12.00;99.90;;;;;;5090981;28;20048;-76
2022/12/31 06:50:15;;;;;;;26.17;7.85;;;12.00;99.90;;;;;;5088546;28;20048;-76
2022/12/31 06:52:42;;;;;;;24.08;7.45;;;12.00;99.90;;;;;;5072445;28;20097;-76
2022/12/31 06:55:11;;;;;;;15.73;7.60;;;12.10;99.90;;;;;;5089440;28;20139;-76
2022/12/31 06:57:39;;;;;;;19.90;6.90;;;12.10;99.90;;;;;;5089227;28;20467;-76
2022/12/31 07:00:07;;;;;;;18.30;6.82;;;12.10;99.90;;;;;;5088846;28;20044;-76
2022/12/31 07:03:00;;;;;;;17.23;7.03;;;12.20;99.90;;;;;;5090360;28;20066;-77
2022/12/31 07:05:30;;;;;;;13.95;6.40;;;12.20;99.90;;;;;;5089927;28;20513;-76
2022/12/31 07:08:24;;;;;;;10.15;7.90;;;12.20;99.90;;;;;;5089471;28;20425;-76
2022/12/31 07:11:41;;;;;;;10.60;7.18;;;12.30;99.90;;;;;;5089231;28;20541;-76
2022/12/31 07:14:15;;;;;;;11.25;7.30;;;12.20;99.90;;;;;;5077429;28;20043;-76
2022/12/31 07:17:31;;;;;;;7.82;5.35;;;12.30;99.90;;;;;;5072385;28;20130;-76
2022/12/31 07:20:11;;;;;;;7.85;5.47;;;12.40;99.90;;;;;;5081276;28;20091;-76
2022/12/31 07:22:39;;;;;;;8.27;5.97;;;12.50;99.90;;;;;;5089155;28;20140;-76
2022/12/31 07:25:07;;;;;;;6.05;5.18;;;12.60;99.90;;;;;;5090775;28;20505;-76
2022/12/31 07:28:02;;;;;;;8.57;5.57;;;12.60;99.90;;;;;;5090286;28;20493;-76
2022/12/31 07:30:47;;;;;;;9.10;6.72;;;12.70;99.90;;;;;;5065800;28;20144;-76
2022/12/31 07:33:33;;;;;;;8.57;6.25;;;12.80;99.90;;;;;;5088827;28;20522;-76
2022/12/31 07:36:22;;;;;;;8.95;7.07;;;12.90;99.90;;;;;;5060128;28;20063;-76
2022/12/31 07:39:04;;;;;;;7.57;6.32;;;13.00;99.90;;;;;;5090441;28;20040;-76
2022/12/31 07:42:01;;;;;;;9.13;7.00;;;13.20;99.90;;;;;;5088933;28;20131;-76
2022/12/31 07:45:06;;;;;;;7.97;7.07;;;13.40;99.90;;;;;;5088379;28;20040;-76
2022/12/31 07:47:34;;;;;;;8.90;7.43;;;13.50;99.90;;;;;;5067839;28;20053;-76
2022/12/31 07:50:02;;;;;;;9.07;7.43;;;13.50;99.90;;;;;;5069201;28;20051;-75
2022/12/31 07:52:30;;;;;;;10.50;8.68;;;13.50;99.90;;;;;;5068631;28;20051;-76
2022/12/31 07:54:57;;;;;;;9.98;7.28;;;13.50;99.90;;;;;;5051060;28;20049;-76
2022/12/31 07:57:33;;;;;;;10.00;7.07;;;13.70;99.90;;;;;;5068487;28;20050;-76
2022/12/31 08:00:12;;;;;;;9.30;6.72;;;14.10;99.90;;;;;;5068151;28;20521;-76
2022/12/31 08:02:58;;;;;;;6.38;4.95;;;15.20;99.90;;;;;;5051942;28;20076;-76
2022/12/31 08:05:32;;;;;;;7.90;5.60;;;16.10;99.90;;;;;;5083970;28;20064;-76
2022/12/31 08:08:11;;;;;;;8.60;6.07;;;17.00;99.90;;;;;;5088942;28;20044;-76
2022/12/31 08:11:04;;;;;;;9.45;7.13;;;17.90;99.90;;;;;;5089336;28;20044;-76
2022/12/31 08:13:32;;;;;;;12.13;7.03;;;18.70;99.90;;;;;;5089406;28;20051;-76
2022/12/31 08:16:01;;;;;;;8.98;5.97;;;19.30;99.90;;;;;;5071209;28;20135;-76
2022/12/31 08:18:29;;;;;;;9.25;7.22;;;19.80;99.90;;;;;;5091747;28;20075;-76
2022/12/31 08:21:05;;;;;;;8.93;6.40;;;20.10;99.90;;;;;;5093387;28;20068;-76
2022/12/31 08:23:43;;;;;;;8.35;6.53;;;20.30;99.90;;;;;;5091231;28;20063;-75
2022/12/31 08:26:20;;;;;;;6.97;5.20;;;20.40;99.90;;;;;;5080772;28;20393;-76
2022/12/31 08:29:14;;;;;;;9.13;5.90;;;20.50;99.90;;;;;;5093156;28;20131;-75
2022/12/31 08:31:42;;;;;;;8.77;5.63;;;20.50;99.90;;;;;;5093289;28;20040;-75
2022/12/31 08:34:43;;;;;;;7.50;5.63;;;20.50;99.90;;;;;;5091604;28;20039;-75
2022/12/31 08:37:27;;;;;;;11.88;7.93;;;20.50;99.90;;;;;;5084829;28;20052;-75
2022/12/31 08:40:03;;;;;;;11.27;7.63;;;20.40;99.90;;;;;;5092693;28;20091;-75
2022/12/31 08:42:39;;;;;;;;;;;20.40;99.90;;;;;;5093388;28;20126;-75
2022/12/31 08:45:07;;;;;;;10.80;6.85;;;20.20;99.90;;;;;;5091836;28;19931;-74
2022/12/31 08:47:34;;;;;;;8.63;6.18;;;20.10;99.90;;;;;;5092472;28;20043;-74
2022/12/31 08:50:05;;;;;;;10.45;5.80;;;19.90;99.90;;;;;;5091404;28;20098;-75
2022/12/31 08:52:33;;;;;;;10.15;5.72;;;19.80;99.90;;;;;;5091385;28;20405;-75
2022/12/31 08:55:02;;;;;;;9.25;5.85;;;19.80;99.90;;;;;;5092566;28;20048;-75
2022/12/31 08:57:58;;;;;;;9.60;5.60;;;19.80;99.90;;;;;;5090296;28;20156;-75
2022/12/31 09:00:27;;;;;;;9.70;6.28;;;19.70;99.90;;;;;;5074914;28;20211;-75
2022/12/31 09:03:16;;;;;;;10.85;6.57;;;19.70;99.90;;;;;;5092375;28;20044;-75
2022/12/31 09:05:58;;;;;;;9.27;5.68;;;19.80;99.90;;;;;;5091487;28;20048;-75
2022/12/31 09:08:37;;;;;;;8.07;5.63;;;19.80;99.90;;;;;;5091367;28;20565;-75
2022/12/31 09:11:37;;;;;;;7.80;5.70;;;19.90;99.90;;;;;;5089995;28;20044;-75
2022/12/31 09:14:42;;;;;;;7.88;5.55;;;20.00;99.90;;;;;;5092104;28;20089;-75
2022/12/31 09:17:21;;;;;;;13.38;7.90;;;20.10;99.90;;;;;;5092084;28;20111;-75
2022/12/31 09:19:49;;;;;;;10.60;6.68;;;20.20;99.90;;;;;;5090519;28;20054;-75
2022/12/31 09:22:17;;;;;;;9.05;6.40;;;20.20;99.90;;;;;;5074157;28;20060;-75
2022/12/31 09:24:45;;;;;;;10.80;6.68;;;20.20;99.90;;;;;;5073813;28;20047;-75
2022/12/31 09:27:48;;;;;;;11.77;7.38;;;20.20;99.90;;;;;;5074190;28;20097;-75
2022/12/31 09:30:17;;;;;;;8.98;6.30;;;20.20;99.90;;;;;;5030531;28;20044;-75
2022/12/31 09:32:59;;;;;;;8.57;5.93;;;20.30;99.90;;;;;;5074174;28;20058;-74
2022/12/31 09:35:39;;;;;;;10.75;6.25;;;20.40;99.90;;;;;;5090598;28;20044;-74
2022/12/31 09:38:13;;;;;;;13.15;6.32;;;20.40;99.90;;;;;;5084180;28;20051;-74
2022/12/31 09:41:15;;;;;;;10.07;5.57;;;20.50;99.90;;;;;;5079438;28;20048;-74
2022/12/31 09:44:04;;;;;;;6.35;4.88;;;20.70;99.90;;;;;;5081175;28;20040;-74
2022/12/31 09:47:02;;;;;;;8.82;5.63;;;20.80;99.90;;;;;;5082471;28;20044;-74
2022/12/31 09:49:29;;;;;;;9.23;6.55;;;20.90;99.90;;;;;;5091767;28;20127;-76
2022/12/31 09:52:13;;;;;;;7.50;5.38;;;21.10;99.90;;;;;;5090026;28;20036;-74
2022/12/31 09:54:53;;;;;;;11.27;6.85;;;21.20;99.90;;;;;;5090973;28;20043;-74
2022/12/31 09:57:38;;;;;;;8.65;6.60;;;21.30;99.90;;;;;;5090446;28;20127;-74
2022/12/31 10:00:38;;;;;;;11.65;5.93;;;21.40;99.90;;;;;;5088998;28;20051;-74
2022/12/31 10:03:17;;;;;;;6.57;4.93;;;21.50;99.90;;;;;;5070270;28;20508;-74
2022/12/31 10:06:14;;;;;;;5.45;4.22;;;21.60;99.90;;;;;;5085867;28;20531;-74
2022/12/31 10:08:55;;;;;;;7.78;5.38;;;21.20;99.90;;;;;;5089177;28;20852;-75
2022/12/31 10:11:32;;;;;;;9.02;4.90;;;21.10;99.90;;;;;;5084794;28;20040;-75
2022/12/31 10:14:02;;;;;;;6.18;4.65;;;21.00;99.90;;;;;;5071515;28;20525;-75
2022/12/31 10:17:00;;;;;;;6.95;4.20;;;21.10;99.90;;;;;;5089789;28;20036;-75
2022/12/31 10:19:28;;;;;;;;;;;21.20;99.90;;;;;;5073252;28;20128;-76
2022/12/31 10:22:22;;;;;;;6.25;4.80;;;21.20;99.90;;;;;;5072754;28;19935;-76
2022/12/31 10:25:38;;;;;;;7.05;5.03;;;21.30;99.90;;;;;;5089400;28;20040;-76
2022/12/31 10:28:06;;;;;;;6.55;5.35;;;21.40;99.90;;;;;;5073036;28;20044;-74
2022/12/31 10:30:38;;;;;;;5.93;4.85;;;21.40;99.90;;;;;;5052632;28;20066;-76
2022/12/31 10:33:37;;;;;;;8.85;5.20;;;21.30;99.90;;;;;;5068753;28;20037;-75
2022/12/31 10:36:14;;;;;;;7.38;4.60;;;21.30;99.90;;;;;;5088501;28;20044;-76
2022/12/31 10:39:07;;;;;;;10.55;6.28;;;21.30;99.90;;;;;;5089064;28;20048;-76
2022/12/31 10:41:54;;;;;;;7.47;4.85;;;21.30;99.90;;;;;;5072732;28;20090;-75
2022/12/31 10:44:44;;;;;;;8.43;4.47;;;21.40;99.90;;;;;;5089551;28;20060;-75
2022/12/31 10:47:42;;;;;;;6.40;4.40;;;21.40;99.90;;;;;;5089355;28;20040;-75
2022/12/31 10:50:33;;;;;;;7.47;4.38;;;21.50;99.90;;;;;;5071856;28;20143;-75
2022/12/31 10:53:21;;;;;;;6.22;3.75;;;21.50;99.90;;;;;;5090770;28;20451;-75
2022/12/31 10:56:38;;;;;;;6.90;4.22;;;21.50;99.90;;;;;;5090262;28;20490;-75
2022/12/31 10:59:15;;;;;;;7.45;4.68;;;21.50;99.80;;;;;;5089655;28;20048;-74
2022/12/31 11:02:00;;;;;;;6.13;3.45;;;21.50;99.90;;;;;;5089911;28;20040;-74
2022/12/31 11:04:56;;;;;;;4.85;3.20;;;21.50;99.90;;;;;;5088926;28;20458;-74
2022/12/31 11:07:36;;;;;;;5.75;3.75;;;21.50;99.90;;;;;;5067045;28;20498;-74
2022/12/31 11:10:31;;;;;;;6.18;3.45;;;21.50;99.90;;;;;;5089704;28;20047;-75
2022/12/31 11:13:40;;;;;;;5.32;3.90;;;21.60;99.80;;;;;;5089889;28;20143;-75
2022/12/31 11:16:37;;;;;;;5.50;3.72;;;21.60;99.50;;;;;;5021733;28;20458;-75
2022/12/31 11:19:23;;;;;;;;;;;21.60;99.50;;;;;;5027693;28;20531;-75
2022/12/31 11:22:27;;;;;;;5.97;3.67;;;21.60;99.50;;;;;;5079559;28;19920;-75
2022/12/31 11:25:06;;;;;;;5.40;4.07;;;21.60;99.80;;;;;;5088792;28;20046;-75
2022/12/31 11:27:51;;;;;;;4.30;3.08;;;21.60;99.80;;;;;;5088753;28;20036;-75
2022/12/31 11:30:44;;;;;;;4.88;3.60;;;21.60;99.50;;;;;;5089713;28;20455;-76
2022/12/31 11:33:24;;;;;;;5.10;3.28;;;21.60;99.70;;;;;;5075032;28;20048;-78
2022/12/31 11:36:36;;;;;;;7.55;4.13;;;21.60;99.20;;;;;;5088245;28;20485;-75
2022/12/31 11:39:15;;;;;;;6.70;3.50;;;21.60;99.30;;;;;;5025623;28;20037;-75
2022/12/31 11:42:11;;;;;;;7.32;4.18;;;21.60;99.10;;;;;;5096629;28;20153;-76
2022/12/31 11:45:03;;;;;;;4.07;3.20;;;21.60;99.30;;;;;;5098092;28;20040;-75
2022/12/31 11:48:08;;;;;;;4.35;2.80;;;21.60;99.10;;;;;;5087045;28;20036;-76
2022/12/31 11:51:08;;;;;;;5.10;3.47;;;21.50;98.90;;;;;;5054155;28;20405;-75
2022/12/31 11:53:44;;;;;;;6.03;4.15;;;21.40;99.20;;;;;;5080067;28;20112;-75
2022/12/31 11:56:17;;;;;;;4.30;2.70;;;21.40;99.10;;;;;;5093851;28;20044;-75
2022/12/31 11:58:51;;;;;;;5.75;3.47;;;21.30;99.00;;;;;;5094944;28;20489;-73
2022/12/31 12:01:30;;;;;;;10.10;3.65;;;21.20;99.00;;;;;;5106926;28;20051;-77
2022/12/31 12:03:58;;;;;;;23.10;4.03;;;21.20;99.20;;;;;;5102043;28;20105;-76
2022/12/31 12:06:31;;;;;;;5.40;3.20;;;21.20;99.40;;;;;;5089192;28;20136;-75
2022/12/31 12:09:05;;;;;;;5.07;3.70;;;21.20;99.40;;;;;;5106324;28;20126;-77
2022/12/31 12:11:40;;;;;;;6.93;4.57;;;21.20;99.70;;;;;;5091809;28;20052;-75
2022/12/31 12:14:19;;;;;;;8.30;4.40;;;21.00;99.90;;;;;;5101664;28;20127;-76
2022/12/31 12:16:56;;;;;;;5.93;4.07;;;21.00;99.80;;;;;;5082998;28;20588;-74
2022/12/31 12:19:30;;;;;;;5.50;4.70;;;21.10;99.90;;;;;;5107627;28;20050;-77
2022/12/31 12:22:09;;;;;;;6.55;3.92;;;21.10;99.90;;;;;;5091533;28;20040;-75
2022/12/31 12:24:37;;;;;;;6.95;3.95;;;21.00;99.90;;;;;;5079966;28;20047;-74
2022/12/31 12:27:19;;;;;;;6.88;3.72;;;21.00;99.90;;;;;;5093842;28;20553;-75
2022/12/31 12:29:46;;;;;;;7.47;4.63;;;20.90;99.90;;;;;;5100445;28;20044;-76
2022/12/31 12:32:17;;;;;;;8.52;6.03;;;20.90;99.90;;;;;;5101464;28;20043;-75
2022/12/31 12:34:44;;;;;;;9.90;5.13;;;20.90;99.90;;;;;;5097233;28;20056;-75
2022/12/31 12:37:34;;;;;;;5.30;3.92;;;20.90;99.90;;;;;;5073385;28;20501;-75
2022/12/31 12:40:13;;;;;;;8.85;4.80;;;20.90;99.90;;;;;;5076527;28;20040;-75
2022/12/31 12:42:48;;;;;;;5.80;3.90;;;20.90;99.90;;;;;;5102007;28;20085;-74
2022/12/31 12:45:40;;;;;;;7.13;3.80;;;20.80;99.90;;;;;;5094439;28;20491;-75
2022/12/31 12:48:22;;;;;;;6.57;4.15;;;20.70;99.90;;;;;;5075184;28;20351;-75
2022/12/31 12:50:50;;;;;;;6.40;3.92;;;20.50;99.90;;;;;;5103186;28;20063;-74
2022/12/31 12:53:29;;;;;;;7.38;4.10;;;20.30;99.90;;;;;;5108702;28;20043;-73
2022/12/31 12:56:24;;;;;;;6.40;3.95;;;20.30;99.90;;;;;;5096316;28;20044;-74
2022/12/31 12:59:34;;;;;;;7.95;3.90;;;20.10;99.90;;;;;;5090526;28;20394;-74
2022/12/31 13:02:16;;;;;;;6.60;4.57;;;20.00;99.90;;;;;;5067919;28;20052;-75
2022/12/31 13:05:02;;;;;;;6.13;4.25;;;19.80;99.90;;;;;;5099564;28;20052;-75
2022/12/31 13:07:35;;;;;;;9.40;4.93;;;19.80;99.90;;;;;;5077501;28;20050;-75
2022/12/31 13:10:06;;;;;;;7.03;5.30;;;19.90;99.90;;;;;;5059038;28;20291;-77
2022/12/31 13:13:07;;;;;;;7.95;3.90;;;19.90;99.90;;;;;;5107053;28;20451;-74
2022/12/31 13:16:27;;;;;;;5.88;4.35;;;19.90;99.90;;;;;;5086482;28;20040;-77
2022/12/31 13:19:29;;;;;;;7.97;4.13;;;19.80;99.90;;;;;;5087638;28;20060;-75
2022/12/31 13:22:02;;;;;;;4.13;3.40;;;19.80;99.90;;;;;;5087502;28;20067;-77
2022/12/31 13:24:48;;;;;;;4.82;3.25;;;19.70;99.90;;;;;;5102258;28;20063;-75
2022/12/31 13:27:24;;;;;;;5.35;3.80;;;19.40;99.90;;;;;;5082679;28;20048;-74
2022/12/31 13:29:56;;;;;;;4.80;3.92;;;19.40;99.90;;;;;;5095803;28;20058;-75
2022/12/31 13:32:36;;;;;;;5.85;4.40;;;19.40;99.90;;;;;;5102402;28;20051;-74
2022/12/31 13:35:32;;;;;;;6.10;3.95;;;19.30;99.90;;;;;;5093872;28;20047;-74
2022/12/31 13:38:10;;;;;;;7.25;3.70;;;19.30;99.90;;;;;;5102561;28;20140;-76
2022/12/31 13:41:10;;;;;;;5.63;3.78;;;19.20;99.90;;;;;;5085974;28;20036;-74